Sunday, July 22, 2018, 12:44 AM EDT
Back to Local

KCDW, Caldwell Essex County Airport

Location: Fairfield, NJ, United States Lat: 40.883
Local Time: 12:44 AM EDT ( 4:44 GMT) Lon: -74.283
Time Zone: US/Eastern Elev: 173 ft

Show me the last for .
Show Decoded

2018-07-21 23:53 METAR KCDW 220353Z 07012G18KT 6SM -RA BR OVC006 19/19 A2989 RMK AO2 CIG 005V009
                 SLP126 P0009 T01890189 =
2018-07-21 23:14 METAR KCDW 220314Z 07010KT 5SM -RA BR OVC006 18/18 A2991 RMK AO2 CIG 005V011
                 P0006 T01830183 =
2018-07-21 22:53 METAR KCDW 220253Z 07012KT 2 1/2SM +RA BR OVC008 18/18 A2992 RMK AO2 CIG 006V010
                 SLP135 P0015 60039 T01780178 58021 =
2018-07-21 22:22 METAR KCDW 220222Z 07010KT 6SM -RA BR OVC009 18/18 A2994 RMK AO2 CIG 007V015
                 P0007 T01780178 =
2018-07-21 22:02 METAR KCDW 220202Z 08009KT 5SM RA BR FEW009 BKN013 OVC028 18/18 A2995 RMK AO2
                 P0002 T01780178 =
2018-07-21 21:53 METAR KCDW 220153Z 08010KT 4SM -RA BR SCT015 BKN023 OVC039 18/18 A2995 RMK AO2
                 SLP147 P0020 T01780178 =
2018-07-21 21:50 METAR KCDW 220150Z 08010KT 3SM -RA BR SCT017 BKN026 OVC035 18/18 A2995 RMK AO2
                 P0020 =
2018-07-21 21:33 METAR KCDW 220133Z 06010KT 2SM +RA BR FEW024 BKN037 OVC055 18/17 A2996 RMK AO2
                 P0015 T01780172 =
2018-07-21 21:25 METAR KCDW 220125Z 08011KT 3SM +RA BR SCT026 BKN041 OVC070 18/17 A2996 RMK AO2
                 P0008 T01780172 =
2018-07-21 20:53 METAR KCDW 220053Z 08009KT 5SM RA BR BKN026 OVC034 18/17 A2997 RMK AO2 SLP153
                 P0004 T01830167 =
2018-07-21 20:25 METAR KCDW 220025Z 07007KT 10SM -RA BKN028 BKN034 OVC045 19/17 A2997 RMK AO2
                 P0001 T01890167 =
2018-07-21 19:53 METAR KCDW 212353Z 08011G19KT 10SM -RA OVC040 19/16 A2998 RMK AO2 RAB15 SLP157
                 P0000 60000 T01940156 10250 20194 57010 =
2018-07-21 18:53 METAR KCDW 212253Z 07016G21KT 10SM OVC050 21/16 A2999 RMK AO2 RAB34E45 SLP161
                 P0000 T02110156 =
2018-07-21 17:53 METAR KCDW 212153Z 08013KT 10SM FEW033 BKN080 BKN120 22/15 A3000 RMK AO2 SLP163
                 T02220150 =
2018-07-21 16:53 METAR KCDW 212053Z 09014G20KT 10SM FEW035 BKN075 OVC090 23/16 A3001 RMK AO2
                 SLP167 T02280156 56013 =
2018-07-21 15:53 METAR KCDW 211953Z 08011G16KT 10SM SCT040 BKN095 23/15 A3002 RMK AO2 SLP170
                 T02330150 =
2018-07-21 14:53 METAR KCDW 211853Z 11008G18KT 10SM FEW045 FEW110 24/14 A3004 RMK AO2 SLP176
                 T02440144 =
2018-07-21 13:53 METAR KCDW 211753Z 11008KT 10SM SCT044 24/13 A3005 RMK AO2 SLP180 T02390133
                 10256 20206 58015 =
2018-07-21 12:53 METAR KCDW 211653Z 12010G19KT 10SM SCT045 24/14 A3007 RMK AO2 SLP186 T02440139 =
2018-07-21 11:53 METAR KCDW 211553Z 09007KT 10SM CLR 24/13 A3008 RMK AO2 SLP190 T02440128 =
2018-07-21 10:53 METAR KCDW 211453Z 11006KT 10SM SCT040 24/13 A3010 RMK AO2 SLP195 T02440128
                 50002 =
2018-07-21 09:53 METAR KCDW 211353Z 10010KT 10SM SCT035 23/14 A3010 RMK AO2 SLP196 T02280139 =
2018-07-21 08:53 METAR KCDW 211253Z 12012G16KT 10SM SCT028 BKN033 22/15 A3009 RMK AO2 SLP194
                 T02220150 =
2018-07-21 07:53 METAR KCDW 211153Z 06005KT 10SM SCT034 21/18 A3009 RMK AO2 SLP193 T02110178
                 10211 20161 58003 =
2018-07-21 06:53 METAR KCDW 211053Z 01003KT 10SM SCT034 18/17 A3009 RMK AO2 SLP195 T01780167 =
2018-07-21 06:36 METAR KCDW 211036Z AUTO 00000KT 10SM FEW003 SCT035 17/17 A3009 RMK AO2 T01720167
                 =
2018-07-21 05:53 METAR KCDW 210953Z AUTO 00000KT 10SM CLR 17/16 A3010 RMK AO2 SLP196 T01670161 =
2018-07-21 04:53 METAR KCDW 210853Z AUTO 00000KT 10SM CLR 17/16 A3010 RMK AO2 SLP196 T01670161
                 57004 =
2018-07-21 03:53 METAR KCDW 210753Z AUTO 00000KT 10SM CLR 16/16 A3010 RMK AO2 SLP198 T01610161 =
2018-07-21 02:53 METAR KCDW 210653Z AUTO 00000KT 10SM FEW032 17/16 A3010 RMK AO2 SLP198 T01720161
                 =
2018-07-21 01:53 METAR KCDW 210553Z AUTO 00000KT 10SM CLR 18/16 A3011 RMK AO2 SLP200 T01780161
                 10239 20178 58008 =
2018-07-21 00:53 METAR KCDW 210453Z 00000KT 10SM CLR 18/17 A3012 RMK AO2 SLP204 T01830167
                 402830156 =

Support USWX by starting your Amazon purchase here.